sensor_id;sensor_type;location;lat;lon;timestamp;P1;durP1;ratioP1;P2;durP2;ratioP2
4053;SDS011;2042;47.956;9.222;2022-09-01T00:00:52;37.23;;;16.50;;
4053;SDS011;2042;47.956;9.222;2022-09-01T00:03:18;31.23;;;14.13;;
4053;SDS011;2042;47.956;9.222;2022-09-01T00:05:48;53.63;;;17.33;;
4053;SDS011;2042;47.956;9.222;2022-09-01T00:08:19;53.80;;;16.50;;
4053;SDS011;2042;47.956;9.222;2022-09-01T00:10:45;94.10;;;21.63;;
4053;SDS011;2042;47.956;9.222;2022-09-01T00:13:12;83.40;;;19.73;;
4053;SDS011;2042;47.956;9.222;2022-09-01T00:15:37;37.33;;;16.03;;
4053;SDS011;2042;47.956;9.222;2022-09-01T00:18:03;24.03;;;13.97;;
4053;SDS011;2042;47.956;9.222;2022-09-01T00:20:29;22.57;;;14.10;;
4053;SDS011;2042;47.956;9.222;2022-09-01T00:22:55;26.47;;;15.63;;
4053;SDS011;2042;47.956;9.222;2022-09-01T00:25:21;20.47;;;14.40;;
4053;SDS011;2042;47.956;9.222;2022-09-01T00:27:48;27.40;;;15.70;;
4053;SDS011;2042;47.956;9.222;2022-09-01T00:30:15;23.23;;;14.87;;
4053;SDS011;2042;47.956;9.222;2022-09-01T00:32:42;41.30;;;17.30;;
4053;SDS011;2042;47.956;9.222;2022-09-01T00:35:11;27.07;;;15.67;;
4053;SDS011;2042;47.956;9.222;2022-09-01T00:37:38;27.57;;;17.37;;
4053;SDS011;2042;47.956;9.222;2022-09-01T00:40:03;31.40;;;19.20;;
4053;SDS011;2042;47.956;9.222;2022-09-01T00:42:30;36.97;;;19.93;;
4053;SDS011;2042;47.956;9.222;2022-09-01T00:44:55;37.80;;;20.20;;
4053;SDS011;2042;47.956;9.222;2022-09-01T00:47:21;37.57;;;20.47;;
4053;SDS011;2042;47.956;9.222;2022-09-01T00:49:47;41.57;;;24.00;;
4053;SDS011;2042;47.956;9.222;2022-09-01T00:52:19;37.90;;;22.30;;
4053;SDS011;2042;47.956;9.222;2022-09-01T00:54:59;51.13;;;29.13;;
4053;SDS011;2042;47.956;9.222;2022-09-01T00:57:28;59.43;;;30.43;;
4053;SDS011;2042;47.956;9.222;2022-09-01T00:59:58;72.37;;;31.53;;
4053;SDS011;2042;47.956;9.222;2022-09-01T01:02:29;67.43;;;32.13;;
4053;SDS011;2042;47.956;9.222;2022-09-01T01:04:56;66.77;;;34.53;;
4053;SDS011;2042;47.956;9.222;2022-09-01T01:07:23;76.97;;;36.10;;
4053;SDS011;2042;47.956;9.222;2022-09-01T01:09:51;83.03;;;37.77;;
4053;SDS011;2042;47.956;9.222;2022-09-01T01:12:17;75.10;;;36.07;;
4053;SDS011;2042;47.956;9.222;2022-09-01T01:14:47;79.00;;;36.90;;
4053;SDS011;2042;47.956;9.222;2022-09-01T01:17:16;93.93;;;38.13;;
4053;SDS011;2042;47.956;9.222;2022-09-01T01:19:50;93.07;;;39.57;;
4053;SDS011;2042;47.956;9.222;2022-09-01T01:25:26;75.30;;;35.73;;
4053;SDS011;2042;47.956;9.222;2022-09-01T01:28:02;81.50;;;39.50;;
4053;SDS011;2042;47.956;9.222;2022-09-01T01:30:33;82.80;;;37.77;;
4053;SDS011;2042;47.956;9.222;2022-09-01T01:33:00;78.40;;;39.87;;
4053;SDS011;2042;47.956;9.222;2022-09-01T01:35:27;78.47;;;38.00;;
4053;SDS011;2042;47.956;9.222;2022-09-01T01:37:56;76.83;;;40.07;;
4053;SDS011;2042;47.956;9.222;2022-09-01T01:40:22;75.13;;;38.30;;
4053;SDS011;2042;47.956;9.222;2022-09-01T01:42:50;85.67;;;39.80;;
4053;SDS011;2042;47.956;9.222;2022-09-01T01:45:19;76.97;;;36.93;;
4053;SDS011;2042;47.956;9.222;2022-09-01T01:47:47;73.83;;;35.60;;
4053;SDS011;2042;47.956;9.222;2022-09-01T01:50:18;72.43;;;35.70;;
4053;SDS011;2042;47.956;9.222;2022-09-01T01:52:44;88.27;;;36.60;;
4053;SDS011;2042;47.956;9.222;2022-09-01T01:55:11;81.63;;;37.53;;
4053;SDS011;2042;47.956;9.222;2022-09-01T01:57:39;76.63;;;37.37;;
4053;SDS011;2042;47.956;9.222;2022-09-01T02:00:13;73.93;;;33.70;;
4053;SDS011;2042;47.956;9.222;2022-09-01T02:02:43;80.97;;;35.80;;
4053;SDS011;2042;47.956;9.222;2022-09-01T02:05:16;67.13;;;34.33;;
4053;SDS011;2042;47.956;9.222;2022-09-01T02:07:54;68.57;;;34.13;;
4053;SDS011;2042;47.956;9.222;2022-09-01T02:10:27;70.70;;;32.63;;
4053;SDS011;2042;47.956;9.222;2022-09-01T02:12:56;67.97;;;30.40;;
4053;SDS011;2042;47.956;9.222;2022-09-01T02:15:27;69.63;;;31.20;;
4053;SDS011;2042;47.956;9.222;2022-09-01T02:17:54;70.13;;;31.43;;
4053;SDS011;2042;47.956;9.222;2022-09-01T02:20:24;64.87;;;29.93;;
4053;SDS011;2042;47.956;9.222;2022-09-01T02:22:53;61.53;;;31.33;;
4053;SDS011;2042;47.956;9.222;2022-09-01T02:25:20;61.53;;;30.43;;
4053;SDS011;2042;47.956;9.222;2022-09-01T02:27:46;58.40;;;29.90;;
4053;SDS011;2042;47.956;9.222;2022-09-01T02:30:15;61.90;;;30.90;;
4053;SDS011;2042;47.956;9.222;2022-09-01T02:32:41;60.63;;;31.73;;
4053;SDS011;2042;47.956;9.222;2022-09-01T02:35:06;67.10;;;31.77;;
4053;SDS011;2042;47.956;9.222;2022-09-01T02:37:34;65.57;;;32.90;;
4053;SDS011;2042;47.956;9.222;2022-09-01T02:40:03;57.60;;;31.10;;
4053;SDS011;2042;47.956;9.222;2022-09-01T02:42:30;71.73;;;30.97;;
4053;SDS011;2042;47.956;9.222;2022-09-01T02:44:56;50.67;;;27.97;;
4053;SDS011;2042;47.956;9.222;2022-09-01T02:47:22;72.47;;;32.37;;
4053;SDS011;2042;47.956;9.222;2022-09-01T02:49:51;65.20;;;32.90;;
4053;SDS011;2042;47.956;9.222;2022-09-01T02:52:17;54.20;;;30.20;;
4053;SDS011;2042;47.956;9.222;2022-09-01T02:54:45;62.77;;;29.57;;
4053;SDS011;2042;47.956;9.222;2022-09-01T02:57:13;52.37;;;29.97;;
4053;SDS011;2042;47.956;9.222;2022-09-01T02:59:38;56.77;;;31.63;;
4053;SDS011;2042;47.956;9.222;2022-09-01T03:02:06;67.03;;;28.70;;
4053;SDS011;2042;47.956;9.222;2022-09-01T03:04:32;62.17;;;31.33;;
4053;SDS011;2042;47.956;9.222;2022-09-01T03:06:59;58.17;;;30.10;;
4053;SDS011;2042;47.956;9.222;2022-09-01T03:09:26;51.83;;;30.43;;
4053;SDS011;2042;47.956;9.222;2022-09-01T03:11:52;55.57;;;30.10;;
4053;SDS011;2042;47.956;9.222;2022-09-01T03:14:19;55.20;;;29.20;;
4053;SDS011;2042;47.956;9.222;2022-09-01T03:16:46;55.70;;;30.20;;
4053;SDS011;2042;47.956;9.222;2022-09-01T03:19:12;62.17;;;28.87;;
4053;SDS011;2042;47.956;9.222;2022-09-01T03:21:39;61.93;;;29.70;;
4053;SDS011;2042;47.956;9.222;2022-09-01T03:24:07;57.80;;;29.20;;
4053;SDS011;2042;47.956;9.222;2022-09-01T03:26:39;55.50;;;27.80;;
4053;SDS011;2042;47.956;9.222;2022-09-01T03:29:05;55.47;;;27.10;;
4053;SDS011;2042;47.956;9.222;2022-09-01T03:31:31;54.93;;;31.00;;
4053;SDS011;2042;47.956;9.222;2022-09-01T03:33:57;55.63;;;27.23;;
4053;SDS011;2042;47.956;9.222;2022-09-01T03:36:23;63.07;;;28.13;;
4053;SDS011;2042;47.956;9.222;2022-09-01T03:38:50;59.70;;;29.00;;
4053;SDS011;2042;47.956;9.222;2022-09-01T03:41:18;60.10;;;28.77;;
4053;SDS011;2042;47.956;9.222;2022-09-01T03:43:46;60.33;;;30.17;;
4053;SDS011;2042;47.956;9.222;2022-09-01T03:46:13;62.50;;;29.43;;
4053;SDS011;2042;47.956;9.222;2022-09-01T03:48:45;65.53;;;30.47;;
4053;SDS011;2042;47.956;9.222;2022-09-01T03:51:19;65.80;;;30.17;;
4053;SDS011;2042;47.956;9.222;2022-09-01T03:53:46;62.00;;;28.00;;
4053;SDS011;2042;47.956;9.222;2022-09-01T03:56:13;58.63;;;28.50;;
4053;SDS011;2042;47.956;9.222;2022-09-01T03:58:40;61.50;;;31.53;;
4053;SDS011;2042;47.956;9.222;2022-09-01T04:07:56;60.93;;;29.20;;
4053;SDS011;2042;47.956;9.222;2022-09-01T04:10:24;59.03;;;28.43;;
4053;SDS011;2042;47.956;9.222;2022-09-01T04:12:50;55.97;;;27.27;;
4053;SDS011;2042;47.956;9.222;2022-09-01T04:15:16;62.50;;;29.50;;
4053;SDS011;2042;47.956;9.222;2022-09-01T04:17:43;58.50;;;28.20;;
4053;SDS011;2042;47.956;9.222;2022-09-01T04:20:27;58.57;;;27.70;;
4053;SDS011;2042;47.956;9.222;2022-09-01T04:22:53;57.43;;;29.67;;
4053;SDS011;2042;47.956;9.222;2022-09-01T04:25:20;56.63;;;27.30;;
4053;SDS011;2042;47.956;9.222;2022-09-01T04:27:47;58.00;;;29.80;;
4053;SDS011;2042;47.956;9.222;2022-09-01T04:30:14;62.87;;;28.03;;
4053;SDS011;2042;47.956;9.222;2022-09-01T04:32:40;63.33;;;31.70;;
4053;SDS011;2042;47.956;9.222;2022-09-01T04:35:10;54.30;;;26.17;;
4053;SDS011;2042;47.956;9.222;2022-09-01T04:37:40;61.83;;;28.20;;
4053;SDS011;2042;47.956;9.222;2022-09-01T04:40:07;69.43;;;31.10;;
4053;SDS011;2042;47.956;9.222;2022-09-01T04:42:34;78.07;;;32.67;;
4053;SDS011;2042;47.956;9.222;2022-09-01T04:45:00;67.77;;;30.00;;
4053;SDS011;2042;47.956;9.222;2022-09-01T04:47:27;76.27;;;33.17;;
4053;SDS011;2042;47.956;9.222;2022-09-01T04:49:55;64.13;;;29.50;;
4053;SDS011;2042;47.956;9.222;2022-09-01T04:52:26;69.87;;;28.93;;
4053;SDS011;2042;47.956;9.222;2022-09-01T04:54:52;71.83;;;33.00;;
4053;SDS011;2042;47.956;9.222;2022-09-01T04:57:18;76.30;;;32.40;;
4053;SDS011;2042;47.956;9.222;2022-09-01T04:59:45;75.60;;;31.67;;
4053;SDS011;2042;47.956;9.222;2022-09-01T05:02:11;71.47;;;30.40;;
4053;SDS011;2042;47.956;9.222;2022-09-01T05:04:37;70.87;;;30.70;;
4053;SDS011;2042;47.956;9.222;2022-09-01T05:07:09;64.40;;;31.13;;
4053;SDS011;2042;47.956;9.222;2022-09-01T05:09:35;65.63;;;29.90;;
4053;SDS011;2042;47.956;9.222;2022-09-01T05:12:02;62.80;;;29.17;;
4053;SDS011;2042;47.956;9.222;2022-09-01T05:14:40;65.17;;;32.57;;
4053;SDS011;2042;47.956;9.222;2022-09-01T05:17:08;60.97;;;31.63;;
4053;SDS011;2042;47.956;9.222;2022-09-01T05:19:36;67.00;;;30.20;;
4053;SDS011;2042;47.956;9.222;2022-09-01T05:22:05;70.00;;;29.27;;
4053;SDS011;2042;47.956;9.222;2022-09-01T05:24:33;67.57;;;31.60;;
4053;SDS011;2042;47.956;9.222;2022-09-01T05:26:59;69.97;;;30.80;;
4053;SDS011;2042;47.956;9.222;2022-09-01T05:29:25;75.73;;;33.33;;
4053;SDS011;2042;47.956;9.222;2022-09-01T05:31:52;74.47;;;33.67;;
4053;SDS011;2042;47.956;9.222;2022-09-01T05:34:19;79.97;;;33.93;;
4053;SDS011;2042;47.956;9.222;2022-09-01T05:36:54;68.13;;;30.40;;
4053;SDS011;2042;47.956;9.222;2022-09-01T05:39:23;70.80;;;32.07;;
4053;SDS011;2042;47.956;9.222;2022-09-01T05:41:50;68.83;;;30.80;;
4053;SDS011;2042;47.956;9.222;2022-09-01T05:44:17;72.43;;;33.57;;
4053;SDS011;2042;47.956;9.222;2022-09-01T05:46:46;80.20;;;32.67;;
4053;SDS011;2042;47.956;9.222;2022-09-01T05:49:13;78.37;;;32.87;;
4053;SDS011;2042;47.956;9.222;2022-09-01T05:51:41;84.30;;;34.13;;
4053;SDS011;2042;47.956;9.222;2022-09-01T05:54:10;68.97;;;32.17;;
4053;SDS011;2042;47.956;9.222;2022-09-01T05:56:36;81.67;;;35.20;;
4053;SDS011;2042;47.956;9.222;2022-09-01T05:59:06;77.03;;;34.23;;
4053;SDS011;2042;47.956;9.222;2022-09-01T06:01:34;62.07;;;30.87;;
4053;SDS011;2042;47.956;9.222;2022-09-01T06:04:05;76.03;;;33.43;;
4053;SDS011;2042;47.956;9.222;2022-09-01T06:06:39;65.83;;;29.57;;
4053;SDS011;2042;47.956;9.222;2022-09-01T06:09:11;61.17;;;30.83;;
4053;SDS011;2042;47.956;9.222;2022-09-01T06:11:39;71.93;;;33.93;;
4053;SDS011;2042;47.956;9.222;2022-09-01T06:14:07;59.27;;;30.90;;
4053;SDS011;2042;47.956;9.222;2022-09-01T06:16:36;49.67;;;29.00;;
4053;SDS011;2042;47.956;9.222;2022-09-01T06:19:02;51.97;;;27.10;;
4053;SDS011;2042;47.956;9.222;2022-09-01T06:21:28;45.80;;;26.30;;
4053;SDS011;2042;47.956;9.222;2022-09-01T06:23:56;43.90;;;27.27;;
4053;SDS011;2042;47.956;9.222;2022-09-01T06:26:26;41.23;;;26.20;;
4053;SDS011;2042;47.956;9.222;2022-09-01T06:28:54;38.10;;;23.73;;
4053;SDS011;2042;47.956;9.222;2022-09-01T06:31:21;35.67;;;22.37;;
4053;SDS011;2042;47.956;9.222;2022-09-01T06:33:48;31.83;;;22.80;;
4053;SDS011;2042;47.956;9.222;2022-09-01T06:36:15;35.80;;;23.93;;
4053;SDS011;2042;47.956;9.222;2022-09-01T06:38:42;31.80;;;22.30;;
4053;SDS011;2042;47.956;9.222;2022-09-01T06:41:08;33.67;;;23.30;;
4053;SDS011;2042;47.956;9.222;2022-09-01T06:43:37;28.63;;;22.00;;
4053;SDS011;2042;47.956;9.222;2022-09-01T06:46:06;28.87;;;22.33;;
4053;SDS011;2042;47.956;9.222;2022-09-01T06:48:34;27.53;;;21.80;;
4053;SDS011;2042;47.956;9.222;2022-09-01T06:51:01;24.30;;;19.80;;
4053;SDS011;2042;47.956;9.222;2022-09-01T06:53:30;24.80;;;17.33;;
4053;SDS011;2042;47.956;9.222;2022-09-01T06:55:58;22.50;;;19.47;;
4053;SDS011;2042;47.956;9.222;2022-09-01T06:58:24;26.10;;;19.63;;
4053;SDS011;2042;47.956;9.222;2022-09-01T07:00:50;21.33;;;17.43;;
4053;SDS011;2042;47.956;9.222;2022-09-01T07:03:16;20.33;;;17.97;;
4053;SDS011;2042;47.956;9.222;2022-09-01T07:05:43;17.20;;;15.40;;
4053;SDS011;2042;47.956;9.222;2022-09-01T07:08:11;18.87;;;16.10;;
4053;SDS011;2042;47.956;9.222;2022-09-01T07:10:44;18.10;;;15.30;;
4053;SDS011;2042;47.956;9.222;2022-09-01T07:13:13;17.70;;;14.73;;
4053;SDS011;2042;47.956;9.222;2022-09-01T07:15:44;16.00;;;14.27;;
4053;SDS011;2042;47.956;9.222;2022-09-01T07:18:14;15.50;;;13.90;;
4053;SDS011;2042;47.956;9.222;2022-09-01T07:20:41;16.17;;;14.40;;
4053;SDS011;2042;47.956;9.222;2022-09-01T07:23:08;13.97;;;12.47;;
4053;SDS011;2042;47.956;9.222;2022-09-01T07:25:38;12.80;;;11.50;;
4053;SDS011;2042;47.956;9.222;2022-09-01T07:28:06;14.30;;;12.23;;
4053;SDS011;2042;47.956;9.222;2022-09-01T07:30:32;13.07;;;11.77;;
4053;SDS011;2042;47.956;9.222;2022-09-01T07:33:04;12.53;;;11.23;;
4053;SDS011;2042;47.956;9.222;2022-09-01T07:35:36;12.73;;;10.57;;
4053;SDS011;2042;47.956;9.222;2022-09-01T07:38:04;12.63;;;11.30;;
4053;SDS011;2042;47.956;9.222;2022-09-01T07:40:34;11.47;;;10.30;;
4053;SDS011;2042;47.956;9.222;2022-09-01T07:43:03;10.10;;;9.10;;
4053;SDS011;2042;47.956;9.222;2022-09-01T07:45:40;12.37;;;11.17;;
4053;SDS011;2042;47.956;9.222;2022-09-01T07:48:10;11.23;;;10.13;;
4053;SDS011;2042;47.956;9.222;2022-09-01T07:50:39;10.77;;;9.63;;
4053;SDS011;2042;47.956;9.222;2022-09-01T07:53:16;11.47;;;10.37;;
4053;SDS011;2042;47.956;9.222;2022-09-01T07:55:51;10.20;;;9.10;;
4053;SDS011;2042;47.956;9.222;2022-09-01T07:58:18;9.97;;;9.03;;
4053;SDS011;2042;47.956;9.222;2022-09-01T08:00:44;7.63;;;6.93;;
4053;SDS011;2042;47.956;9.222;2022-09-01T08:03:12;7.90;;;7.10;;
4053;SDS011;2042;47.956;9.222;2022-09-01T08:05:38;6.90;;;6.30;;
4053;SDS011;2042;47.956;9.222;2022-09-01T08:08:05;7.63;;;6.93;;
4053;SDS011;2042;47.956;9.222;2022-09-01T08:10:30;7.60;;;7.00;;
4053;SDS011;2042;47.956;9.222;2022-09-01T08:12:56;8.40;;;7.60;;
4053;SDS011;2042;47.956;9.222;2022-09-01T08:15:22;7.97;;;7.20;;
4053;SDS011;2042;47.956;9.222;2022-09-01T08:17:48;7.90;;;7.20;;
4053;SDS011;2042;47.956;9.222;2022-09-01T08:20:14;7.73;;;6.90;;
4053;SDS011;2042;47.956;9.222;2022-09-01T08:22:39;8.77;;;7.93;;
4053;SDS011;2042;47.956;9.222;2022-09-01T08:25:06;7.20;;;6.60;;
4053;SDS011;2042;47.956;9.222;2022-09-01T08:27:33;7.80;;;7.10;;
4053;SDS011;2042;47.956;9.222;2022-09-01T08:30:03;7.70;;;7.00;;
4053;SDS011;2042;47.956;9.222;2022-09-01T08:32:31;7.73;;;7.03;;
4053;SDS011;2042;47.956;9.222;2022-09-01T08:34:57;7.20;;;6.23;;
4053;SDS011;2042;47.956;9.222;2022-09-01T08:37:23;6.00;;;5.50;;
4053;SDS011;2042;47.956;9.222;2022-09-01T08:39:49;5.80;;;5.20;;
4053;SDS011;2042;47.956;9.222;2022-09-01T08:47:53;5.13;;;4.73;;
4053;SDS011;2042;47.956;9.222;2022-09-01T08:50:21;5.67;;;5.27;;
4053;SDS011;2042;47.956;9.222;2022-09-01T08:53:02;6.60;;;6.00;;
4053;SDS011;2042;47.956;9.222;2022-09-01T08:55:39;6.57;;;5.77;;
4053;SDS011;2042;47.956;9.222;2022-09-01T08:58:09;6.97;;;6.37;;
4053;SDS011;2042;47.956;9.222;2022-09-01T09:00:41;5.90;;;5.40;;
4053;SDS011;2042;47.956;9.222;2022-09-01T09:05:46;6.27;;;5.77;;
4053;SDS011;2042;47.956;9.222;2022-09-01T09:14:10;6.53;;;5.93;;
4053;SDS011;2042;47.956;9.222;2022-09-01T09:16:48;6.00;;;5.40;;
4053;SDS011;2042;47.956;9.222;2022-09-01T09:19:21;5.33;;;4.83;;
4053;SDS011;2042;47.956;9.222;2022-09-01T09:21:53;6.20;;;5.70;;
4053;SDS011;2042;47.956;9.222;2022-09-01T09:24:27;5.53;;;5.07;;
4053;SDS011;2042;47.956;9.222;2022-09-01T09:27:11;6.57;;;5.40;;
4053;SDS011;2042;47.956;9.222;2022-09-01T09:29:46;5.23;;;4.83;;
4053;SDS011;2042;47.956;9.222;2022-09-01T09:32:15;5.60;;;5.00;;
4053;SDS011;2042;47.956;9.222;2022-09-01T09:34:41;5.50;;;5.00;;
4053;SDS011;2042;47.956;9.222;2022-09-01T09:37:19;5.80;;;5.30;;
4053;SDS011;2042;47.956;9.222;2022-09-01T09:40:24;5.33;;;4.83;;
4053;SDS011;2042;47.956;9.222;2022-09-01T09:43:04;4.63;;;4.23;;
4053;SDS011;2042;47.956;9.222;2022-09-01T09:45:34;4.93;;;4.53;;
4053;SDS011;2042;47.956;9.222;2022-09-01T09:48:04;4.03;;;3.73;;
4053;SDS011;2042;47.956;9.222;2022-09-01T09:50:36;5.00;;;4.70;;
4053;SDS011;2042;47.956;9.222;2022-09-01T09:55:58;4.50;;;4.17;;
4053;SDS011;2042;47.956;9.222;2022-09-01T09:58:33;4.30;;;4.00;;
4053;SDS011;2042;47.956;9.222;2022-09-01T10:01:10;4.47;;;4.17;;
4053;SDS011;2042;47.956;9.222;2022-09-01T10:03:53;4.63;;;4.23;;
4053;SDS011;2042;47.956;9.222;2022-09-01T10:06:35;4.97;;;4.57;;
4053;SDS011;2042;47.956;9.222;2022-09-01T10:09:14;4.63;;;4.23;;
4053;SDS011;2042;47.956;9.222;2022-09-01T10:11:56;5.70;;;4.03;;
4053;SDS011;2042;47.956;9.222;2022-09-01T10:14:28;4.20;;;3.90;;
4053;SDS011;2042;47.956;9.222;2022-09-01T10:17:13;4.80;;;4.40;;
4053;SDS011;2042;47.956;9.222;2022-09-01T10:19:47;6.07;;;5.57;;
4053;SDS011;2042;47.956;9.222;2022-09-01T10:22:34;5.87;;;5.27;;
4053;SDS011;2042;47.956;9.222;2022-09-01T10:25:03;4.40;;;4.10;;
4053;SDS011;2042;47.956;9.222;2022-09-01T10:27:32;4.53;;;4.20;;
4053;SDS011;2042;47.956;9.222;2022-09-01T10:30:11;4.20;;;3.77;;
4053;SDS011;2042;47.956;9.222;2022-09-01T10:32:43;4.37;;;4.07;;
4053;SDS011;2042;47.956;9.222;2022-09-01T10:38:18;5.37;;;4.87;;
4053;SDS011;2042;47.956;9.222;2022-09-01T10:40:46;4.20;;;3.90;;
4053;SDS011;2042;47.956;9.222;2022-09-01T10:43:22;4.30;;;4.00;;
4053;SDS011;2042;47.956;9.222;2022-09-01T10:45:52;3.93;;;3.63;;
4053;SDS011;2042;47.956;9.222;2022-09-01T10:50:45;3.87;;;3.50;;
4053;SDS011;2042;47.956;9.222;2022-09-01T10:58:46;4.57;;;4.17;;
4053;SDS011;2042;47.956;9.222;2022-09-01T11:02:03;3.83;;;3.53;;
4053;SDS011;2042;47.956;9.222;2022-09-01T11:09:45;4.00;;;3.70;;
4053;SDS011;2042;47.956;9.222;2022-09-01T11:12:57;4.17;;;3.87;;
4053;SDS011;2042;47.956;9.222;2022-09-01T11:15:38;3.77;;;3.47;;
4053;SDS011;2042;47.956;9.222;2022-09-01T11:18:23;3.50;;;3.30;;
4053;SDS011;2042;47.956;9.222;2022-09-01T11:21:12;3.77;;;3.47;;
4053;SDS011;2042;47.956;9.222;2022-09-01T11:23:48;3.57;;;3.37;;
4053;SDS011;2042;47.956;9.222;2022-09-01T11:28:57;4.00;;;3.40;;
4053;SDS011;2042;47.956;9.222;2022-09-01T11:31:25;4.03;;;3.73;;
4053;SDS011;2042;47.956;9.222;2022-09-01T11:34:12;3.53;;;3.33;;
4053;SDS011;2042;47.956;9.222;2022-09-01T11:44:10;3.90;;;3.60;;
4053;SDS011;2042;47.956;9.222;2022-09-01T11:46:42;3.70;;;3.30;;
4053;SDS011;2042;47.956;9.222;2022-09-01T11:49:26;4.40;;;3.40;;
4053;SDS011;2042;47.956;9.222;2022-09-01T11:51:58;3.00;;;2.80;;
4053;SDS011;2042;47.956;9.222;2022-09-01T11:54:25;3.70;;;3.17;;
4053;SDS011;2042;47.956;9.222;2022-09-01T11:56:52;3.80;;;3.23;;
4053;SDS011;2042;47.956;9.222;2022-09-01T11:59:31;4.20;;;3.90;;
4053;SDS011;2042;47.956;9.222;2022-09-01T12:02:01;3.53;;;3.23;;
4053;SDS011;2042;47.956;9.222;2022-09-01T12:04:34;3.40;;;3.20;;
4053;SDS011;2042;47.956;9.222;2022-09-01T12:07:03;4.23;;;3.80;;
4053;SDS011;2042;47.956;9.222;2022-09-01T12:09:35;2.90;;;2.70;;
4053;SDS011;2042;47.956;9.222;2022-09-01T12:12:05;3.43;;;3.23;;
4053;SDS011;2042;47.956;9.222;2022-09-01T12:14:32;4.27;;;3.80;;
4053;SDS011;2042;47.956;9.222;2022-09-01T12:17:02;4.20;;;3.90;;
4053;SDS011;2042;47.956;9.222;2022-09-01T12:19:33;4.00;;;3.70;;
4053;SDS011;2042;47.956;9.222;2022-09-01T12:22:12;3.63;;;3.33;;
4053;SDS011;2042;47.956;9.222;2022-09-01T12:24:43;3.53;;;3.33;;
4053;SDS011;2042;47.956;9.222;2022-09-01T12:27:11;2.90;;;2.70;;
4053;SDS011;2042;47.956;9.222;2022-09-01T12:29:38;3.13;;;2.93;;
4053;SDS011;2042;47.956;9.222;2022-09-01T12:32:04;3.20;;;3.00;;
4053;SDS011;2042;47.956;9.222;2022-09-01T12:39:47;3.43;;;3.23;;
4053;SDS011;2042;47.956;9.222;2022-09-01T12:44:48;6.27;;;4.50;;
4053;SDS011;2042;47.956;9.222;2022-09-01T12:53:12;5.47;;;5.00;;
4053;SDS011;2042;47.956;9.222;2022-09-01T12:55:37;3.90;;;3.60;;
4053;SDS011;2042;47.956;9.222;2022-09-01T12:58:04;3.90;;;3.60;;
4053;SDS011;2042;47.956;9.222;2022-09-01T13:00:32;3.40;;;3.20;;
4053;SDS011;2042;47.956;9.222;2022-09-01T13:03:18;3.43;;;3.23;;
4053;SDS011;2042;47.956;9.222;2022-09-01T13:05:54;3.60;;;3.40;;
4053;SDS011;2042;47.956;9.222;2022-09-01T13:08:24;4.43;;;4.03;;
4053;SDS011;2042;47.956;9.222;2022-09-01T13:10:53;4.17;;;3.27;;
4053;SDS011;2042;47.956;9.222;2022-09-01T13:13:30;3.93;;;3.63;;
4053;SDS011;2042;47.956;9.222;2022-09-01T13:15:58;3.57;;;3.37;;
4053;SDS011;2042;47.956;9.222;2022-09-01T13:18:26;4.40;;;4.07;;
4053;SDS011;2042;47.956;9.222;2022-09-01T13:20:53;3.80;;;3.50;;
4053;SDS011;2042;47.956;9.222;2022-09-01T13:23:20;3.70;;;3.50;;
4053;SDS011;2042;47.956;9.222;2022-09-01T13:25:46;3.60;;;3.30;;
4053;SDS011;2042;47.956;9.222;2022-09-01T13:28:13;4.07;;;3.77;;
4053;SDS011;2042;47.956;9.222;2022-09-01T13:30:40;3.70;;;3.40;;
4053;SDS011;2042;47.956;9.222;2022-09-01T13:33:07;3.40;;;3.13;;
4053;SDS011;2042;47.956;9.222;2022-09-01T13:35:36;5.40;;;4.90;;
4053;SDS011;2042;47.956;9.222;2022-09-01T13:38:03;3.83;;;3.53;;
4053;SDS011;2042;47.956;9.222;2022-09-01T13:40:28;3.80;;;3.50;;
4053;SDS011;2042;47.956;9.222;2022-09-01T13:42:54;3.47;;;3.17;;
4053;SDS011;2042;47.956;9.222;2022-09-01T13:45:21;4.30;;;3.90;;
4053;SDS011;2042;47.956;9.222;2022-09-01T13:47:51;3.17;;;2.97;;
4053;SDS011;2042;47.956;9.222;2022-09-01T13:50:18;3.70;;;3.40;;
4053;SDS011;2042;47.956;9.222;2022-09-01T13:52:48;4.27;;;3.60;;
4053;SDS011;2042;47.956;9.222;2022-09-01T13:55:17;4.17;;;3.87;;
4053;SDS011;2042;47.956;9.222;2022-09-01T13:57:45;3.73;;;3.43;;
4053;SDS011;2042;47.956;9.222;2022-09-01T14:00:12;4.20;;;3.90;;
4053;SDS011;2042;47.956;9.222;2022-09-01T14:02:42;4.57;;;3.97;;
4053;SDS011;2042;47.956;9.222;2022-09-01T14:05:19;3.63;;;3.43;;
4053;SDS011;2042;47.956;9.222;2022-09-01T14:07:49;3.30;;;3.10;;
4053;SDS011;2042;47.956;9.222;2022-09-01T14:10:16;3.90;;;3.60;;
4053;SDS011;2042;47.956;9.222;2022-09-01T14:12:43;3.30;;;3.00;;
4053;SDS011;2042;47.956;9.222;2022-09-01T14:15:10;5.57;;;4.00;;
4053;SDS011;2042;47.956;9.222;2022-09-01T14:17:37;3.43;;;3.20;;
4053;SDS011;2042;47.956;9.222;2022-09-01T14:20:04;3.30;;;3.10;;
4053;SDS011;2042;47.956;9.222;2022-09-01T14:22:33;3.47;;;3.27;;
4053;SDS011;2042;47.956;9.222;2022-09-01T14:24:59;4.30;;;3.90;;
4053;SDS011;2042;47.956;9.222;2022-09-01T14:27:25;4.00;;;3.70;;
4053;SDS011;2042;47.956;9.222;2022-09-01T14:29:51;3.60;;;3.40;;
4053;SDS011;2042;47.956;9.222;2022-09-01T14:32:17;3.77;;;3.47;;
4053;SDS011;2042;47.956;9.222;2022-09-01T14:34:46;3.80;;;3.50;;
4053;SDS011;2042;47.956;9.222;2022-09-01T14:37:12;4.00;;;3.67;;
4053;SDS011;2042;47.956;9.222;2022-09-01T14:39:38;3.47;;;3.27;;
4053;SDS011;2042;47.956;9.222;2022-09-01T14:42:04;3.80;;;3.50;;
4053;SDS011;2042;47.956;9.222;2022-09-01T14:44:36;3.80;;;3.50;;
4053;SDS011;2042;47.956;9.222;2022-09-01T14:47:02;4.77;;;4.37;;
4053;SDS011;2042;47.956;9.222;2022-09-01T14:49:30;5.70;;;3.73;;
4053;SDS011;2042;47.956;9.222;2022-09-01T14:52:00;4.20;;;3.90;;
4053;SDS011;2042;47.956;9.222;2022-09-01T14:54:28;4.18;;;3.80;;
4053;SDS011;2042;47.956;9.222;2022-09-01T14:56:54;3.23;;;3.03;;
4053;SDS011;2042;47.956;9.222;2022-09-01T14:59:20;3.80;;;3.50;;
4053;SDS011;2042;47.956;9.222;2022-09-01T15:01:46;3.77;;;3.50;;
4053;SDS011;2042;47.956;9.222;2022-09-01T15:04:12;4.10;;;3.77;;
4053;SDS011;2042;47.956;9.222;2022-09-01T15:06:37;4.40;;;3.90;;
4053;SDS011;2042;47.956;9.222;2022-09-01T15:09:03;3.37;;;3.17;;
4053;SDS011;2042;47.956;9.222;2022-09-01T15:11:29;4.30;;;3.97;;
4053;SDS011;2042;47.956;9.222;2022-09-01T15:13:55;4.30;;;4.00;;
4053;SDS011;2042;47.956;9.222;2022-09-01T15:16:23;5.00;;;3.50;;
4053;SDS011;2042;47.956;9.222;2022-09-01T15:18:50;5.07;;;3.90;;
4053;SDS011;2042;47.956;9.222;2022-09-01T15:21:19;3.90;;;3.60;;
4053;SDS011;2042;47.956;9.222;2022-09-01T15:23:46;5.53;;;4.07;;
4053;SDS011;2042;47.956;9.222;2022-09-01T15:26:13;3.90;;;3.60;;
4053;SDS011;2042;47.956;9.222;2022-09-01T15:28:41;4.10;;;3.80;;
4053;SDS011;2042;47.956;9.222;2022-09-01T15:31:14;4.10;;;3.80;;
4053;SDS011;2042;47.956;9.222;2022-09-01T15:33:41;4.47;;;4.07;;
4053;SDS011;2042;47.956;9.222;2022-09-01T15:36:08;4.13;;;3.73;;
4053;SDS011;2042;47.956;9.222;2022-09-01T15:38:38;4.40;;;4.10;;
4053;SDS011;2042;47.956;9.222;2022-09-01T15:41:04;5.70;;;3.70;;
4053;SDS011;2042;47.956;9.222;2022-09-01T15:43:31;4.27;;;3.87;;
4053;SDS011;2042;47.956;9.222;2022-09-01T15:45:57;4.30;;;4.00;;
4053;SDS011;2042;47.956;9.222;2022-09-01T15:48:26;5.07;;;4.57;;
4053;SDS011;2042;47.956;9.222;2022-09-01T15:50:52;4.20;;;3.93;;
4053;SDS011;2042;47.956;9.222;2022-09-01T15:53:25;4.37;;;4.07;;
4053;SDS011;2042;47.956;9.222;2022-09-01T15:55:51;4.07;;;3.77;;
4053;SDS011;2042;47.956;9.222;2022-09-01T15:58:17;5.00;;;4.00;;
4053;SDS011;2042;47.956;9.222;2022-09-01T16:00:44;4.67;;;4.30;;
4053;SDS011;2042;47.956;9.222;2022-09-01T16:03:09;4.77;;;4.37;;
4053;SDS011;2042;47.956;9.222;2022-09-01T16:05:36;4.10;;;3.80;;
4053;SDS011;2042;47.956;9.222;2022-09-01T16:08:04;4.80;;;4.40;;
4053;SDS011;2042;47.956;9.222;2022-09-01T16:10:34;4.70;;;4.40;;
4053;SDS011;2042;47.956;9.222;2022-09-01T16:13:02;3.80;;;3.60;;
4053;SDS011;2042;47.956;9.222;2022-09-01T16:15:28;4.53;;;3.90;;
4053;SDS011;2042;47.956;9.222;2022-09-01T16:20:58;4.90;;;4.50;;
4053;SDS011;2042;47.956;9.222;2022-09-01T16:23:47;4.20;;;3.90;;